sensor_id;sensor_type;location;lat;lon;timestamp;P1;durP1;ratioP1;P2;durP2;ratioP2
50789;SDS011;37287;47.554;7.844;2022-10-30T00:00:58;15.77;;;5.40;;
50789;SDS011;37287;47.554;7.844;2022-10-30T00:03:24;6.32;;;3.83;;
50789;SDS011;37287;47.554;7.844;2022-10-30T00:05:51;8.15;;;4.82;;
50789;SDS011;37287;47.554;7.844;2022-10-30T00:08:19;8.25;;;4.18;;
50789;SDS011;37287;47.554;7.844;2022-10-30T00:11:12;11.00;;;4.85;;
50789;SDS011;37287;47.554;7.844;2022-10-30T00:13:39;7.05;;;4.32;;
50789;SDS011;37287;47.554;7.844;2022-10-30T00:16:09;9.20;;;4.75;;
50789;SDS011;37287;47.554;7.844;2022-10-30T00:18:36;7.68;;;4.63;;
50789;SDS011;37287;47.554;7.844;2022-10-30T00:21:07;11.40;;;5.90;;
50789;SDS011;37287;47.554;7.844;2022-10-30T00:23:37;9.15;;;5.18;;
50789;SDS011;37287;47.554;7.844;2022-10-30T00:26:05;10.80;;;5.35;;
50789;SDS011;37287;47.554;7.844;2022-10-30T00:28:32;14.85;;;5.68;;
50789;SDS011;37287;47.554;7.844;2022-10-30T00:31:02;19.13;;;5.97;;
50789;SDS011;37287;47.554;7.844;2022-10-30T00:33:30;15.55;;;6.60;;
50789;SDS011;37287;47.554;7.844;2022-10-30T00:35:56;13.57;;;5.30;;
50789;SDS011;37287;47.554;7.844;2022-10-30T00:38:28;15.38;;;5.32;;
50789;SDS011;37287;47.554;7.844;2022-10-30T00:40:54;11.50;;;5.28;;
50789;SDS011;37287;47.554;7.844;2022-10-30T00:43:37;12.05;;;5.55;;
50789;SDS011;37287;47.554;7.844;2022-10-30T00:46:06;12.30;;;5.70;;
50789;SDS011;37287;47.554;7.844;2022-10-30T00:48:42;13.02;;;5.53;;
50789;SDS011;37287;47.554;7.844;2022-10-30T00:51:12;11.02;;;5.72;;
50789;SDS011;37287;47.554;7.844;2022-10-30T00:53:40;13.75;;;5.78;;
50789;SDS011;37287;47.554;7.844;2022-10-30T00:56:08;15.93;;;5.35;;
50789;SDS011;37287;47.554;7.844;2022-10-30T00:58:41;10.85;;;5.40;;
50789;SDS011;37287;47.554;7.844;2022-10-30T01:01:13;10.02;;;5.00;;
50789;SDS011;37287;47.554;7.844;2022-10-30T01:03:47;14.23;;;5.82;;
50789;SDS011;37287;47.554;7.844;2022-10-30T01:06:17;16.25;;;6.05;;
50789;SDS011;37287;47.554;7.844;2022-10-30T01:08:47;9.90;;;5.53;;
50789;SDS011;37287;47.554;7.844;2022-10-30T01:11:24;10.80;;;5.65;;
50789;SDS011;37287;47.554;7.844;2022-10-30T01:13:56;14.00;;;5.45;;
50789;SDS011;37287;47.554;7.844;2022-10-30T01:16:41;13.82;;;6.00;;
50789;SDS011;37287;47.554;7.844;2022-10-30T01:19:25;12.68;;;6.03;;
50789;SDS011;37287;47.554;7.844;2022-10-30T01:22:18;11.15;;;6.15;;
50789;SDS011;37287;47.554;7.844;2022-10-30T01:27:59;14.52;;;7.20;;
50789;SDS011;37287;47.554;7.844;2022-10-30T01:39:23;12.80;;;5.93;;
50789;SDS011;37287;47.554;7.844;2022-10-30T01:41:52;18.13;;;7.70;;
50789;SDS011;37287;47.554;7.844;2022-10-30T01:44:20;14.63;;;6.00;;
50789;SDS011;37287;47.554;7.844;2022-10-30T01:50:02;11.60;;;5.50;;
50789;SDS011;37287;47.554;7.844;2022-10-30T01:58:19;15.25;;;5.05;;
50789;SDS011;37287;47.554;7.844;2022-10-30T02:00:57;8.77;;;5.18;;
50789;SDS011;37287;47.554;7.844;2022-10-30T02:03:25;8.77;;;4.47;;
50789;SDS011;37287;47.554;7.844;2022-10-30T02:05:54;8.98;;;5.10;;
50789;SDS011;37287;47.554;7.844;2022-10-30T02:08:21;13.80;;;6.55;;
50789;SDS011;37287;47.554;7.844;2022-10-30T02:10:48;18.33;;;6.90;;
50789;SDS011;37287;47.554;7.844;2022-10-30T02:13:17;15.13;;;6.38;;
50789;SDS011;37287;47.554;7.844;2022-10-30T02:15:49;15.70;;;7.15;;
50789;SDS011;37287;47.554;7.844;2022-10-30T02:18:16;17.63;;;6.88;;
50789;SDS011;37287;47.554;7.844;2022-10-30T02:20:42;13.35;;;6.68;;
50789;SDS011;37287;47.554;7.844;2022-10-30T02:23:09;16.63;;;7.55;;
50789;SDS011;37287;47.554;7.844;2022-10-30T02:25:41;20.92;;;8.10;;
50789;SDS011;37287;47.554;7.844;2022-10-30T02:28:08;16.55;;;7.97;;
50789;SDS011;37287;47.554;7.844;2022-10-30T02:30:35;16.50;;;8.50;;
50789;SDS011;37287;47.554;7.844;2022-10-30T02:33:01;14.98;;;7.43;;
50789;SDS011;37287;47.554;7.844;2022-10-30T02:35:28;12.82;;;6.95;;
50789;SDS011;37287;47.554;7.844;2022-10-30T02:38:02;26.58;;;9.30;;
50789;SDS011;37287;47.554;7.844;2022-10-30T02:40:28;13.45;;;7.57;;
50789;SDS011;37287;47.554;7.844;2022-10-30T02:42:55;16.80;;;7.20;;
50789;SDS011;37287;47.554;7.844;2022-10-30T02:45:22;14.57;;;6.88;;
50789;SDS011;37287;47.554;7.844;2022-10-30T02:47:50;18.02;;;8.65;;
50789;SDS011;37287;47.554;7.844;2022-10-30T02:50:17;15.20;;;7.40;;
50789;SDS011;37287;47.554;7.844;2022-10-30T02:52:44;15.68;;;7.30;;
50789;SDS011;37287;47.554;7.844;2022-10-30T02:55:11;15.98;;;7.70;;
50789;SDS011;37287;47.554;7.844;2022-10-30T02:57:37;18.60;;;7.47;;
50789;SDS011;37287;47.554;7.844;2022-10-30T03:00:09;14.57;;;6.72;;
50789;SDS011;37287;47.554;7.844;2022-10-30T03:02:37;10.88;;;6.53;;
50789;SDS011;37287;47.554;7.844;2022-10-30T03:05:04;17.83;;;7.00;;
50789;SDS011;37287;47.554;7.844;2022-10-30T03:07:32;14.30;;;6.07;;
50789;SDS011;37287;47.554;7.844;2022-10-30T03:10:01;10.15;;;6.13;;
50789;SDS011;37287;47.554;7.844;2022-10-30T03:12:32;10.52;;;6.07;;
50789;SDS011;37287;47.554;7.844;2022-10-30T03:15:00;14.05;;;6.88;;
50789;SDS011;37287;47.554;7.844;2022-10-30T03:17:26;16.20;;;7.22;;
50789;SDS011;37287;47.554;7.844;2022-10-30T03:19:56;21.83;;;8.93;;
50789;SDS011;37287;47.554;7.844;2022-10-30T03:22:23;16.25;;;8.43;;
50789;SDS011;37287;47.554;7.844;2022-10-30T03:24:50;19.73;;;8.43;;
50789;SDS011;37287;47.554;7.844;2022-10-30T03:27:16;14.30;;;7.47;;
50789;SDS011;37287;47.554;7.844;2022-10-30T03:29:45;14.63;;;7.25;;
50789;SDS011;37287;47.554;7.844;2022-10-30T03:32:11;9.55;;;6.18;;
50789;SDS011;37287;47.554;7.844;2022-10-30T03:34:38;9.10;;;6.43;;
50789;SDS011;37287;47.554;7.844;2022-10-30T03:37:05;12.45;;;6.43;;
50789;SDS011;37287;47.554;7.844;2022-10-30T03:39:32;17.00;;;8.48;;
50789;SDS011;37287;47.554;7.844;2022-10-30T03:41:58;13.52;;;6.40;;
50789;SDS011;37287;47.554;7.844;2022-10-30T03:44:31;11.90;;;6.80;;
50789;SDS011;37287;47.554;7.844;2022-10-30T03:46:57;10.10;;;6.38;;
50789;SDS011;37287;47.554;7.844;2022-10-30T03:49:24;13.05;;;6.30;;
50789;SDS011;37287;47.554;7.844;2022-10-30T03:51:55;16.92;;;7.63;;
50789;SDS011;37287;47.554;7.844;2022-10-30T03:54:21;12.95;;;6.47;;
50789;SDS011;37287;47.554;7.844;2022-10-30T03:56:48;14.65;;;7.22;;
50789;SDS011;37287;47.554;7.844;2022-10-30T03:59:16;11.68;;;6.80;;
50789;SDS011;37287;47.554;7.844;2022-10-30T04:01:43;12.20;;;6.68;;
50789;SDS011;37287;47.554;7.844;2022-10-30T04:04:09;17.65;;;7.72;;
50789;SDS011;37287;47.554;7.844;2022-10-30T04:06:47;14.82;;;6.57;;
50789;SDS011;37287;47.554;7.844;2022-10-30T04:09:13;14.27;;;6.10;;
50789;SDS011;37287;47.554;7.844;2022-10-30T04:11:40;16.48;;;6.30;;
50789;SDS011;37287;47.554;7.844;2022-10-30T04:14:07;14.13;;;6.22;;
50789;SDS011;37287;47.554;7.844;2022-10-30T04:16:35;10.48;;;6.03;;
50789;SDS011;37287;47.554;7.844;2022-10-30T04:19:02;14.00;;;5.78;;
50789;SDS011;37287;47.554;7.844;2022-10-30T04:21:29;15.75;;;6.40;;
50789;SDS011;37287;47.554;7.844;2022-10-30T04:23:55;9.10;;;6.13;;
50789;SDS011;37287;47.554;7.844;2022-10-30T04:26:22;15.18;;;6.57;;
50789;SDS011;37287;47.554;7.844;2022-10-30T04:28:53;12.15;;;5.80;;
50789;SDS011;37287;47.554;7.844;2022-10-30T04:31:19;8.52;;;5.30;;
50789;SDS011;37287;47.554;7.844;2022-10-30T04:33:46;9.35;;;5.07;;
50789;SDS011;37287;47.554;7.844;2022-10-30T04:36:12;9.77;;;5.70;;
50789;SDS011;37287;47.554;7.844;2022-10-30T04:38:39;13.38;;;5.78;;
50789;SDS011;37287;47.554;7.844;2022-10-30T04:41:08;13.68;;;7.25;;
50789;SDS011;37287;47.554;7.844;2022-10-30T04:43:36;14.55;;;6.75;;
50789;SDS011;37287;47.554;7.844;2022-10-30T04:46:03;11.57;;;6.63;;
50789;SDS011;37287;47.554;7.844;2022-10-30T04:48:31;9.50;;;6.18;;
50789;SDS011;37287;47.554;7.844;2022-10-30T04:51:02;10.55;;;5.55;;
50789;SDS011;37287;47.554;7.844;2022-10-30T04:53:30;7.30;;;4.93;;
50789;SDS011;37287;47.554;7.844;2022-10-30T04:55:57;11.40;;;5.25;;
50789;SDS011;37287;47.554;7.844;2022-10-30T04:58:25;9.73;;;5.93;;
50789;SDS011;37287;47.554;7.844;2022-10-30T05:00:52;13.45;;;6.05;;
50789;SDS011;37287;47.554;7.844;2022-10-30T05:03:28;13.77;;;7.15;;
50789;SDS011;37287;47.554;7.844;2022-10-30T05:05:58;10.48;;;5.90;;
50789;SDS011;37287;47.554;7.844;2022-10-30T05:08:27;11.63;;;5.93;;
50789;SDS011;37287;47.554;7.844;2022-10-30T05:10:54;10.00;;;6.10;;
50789;SDS011;37287;47.554;7.844;2022-10-30T05:13:21;9.40;;;6.13;;
50789;SDS011;37287;47.554;7.844;2022-10-30T05:15:48;10.20;;;5.40;;
50789;SDS011;37287;47.554;7.844;2022-10-30T05:18:15;10.77;;;5.30;;
50789;SDS011;37287;47.554;7.844;2022-10-30T05:20:45;9.77;;;5.55;;
50789;SDS011;37287;47.554;7.844;2022-10-30T05:23:12;13.40;;;5.70;;
50789;SDS011;37287;47.554;7.844;2022-10-30T05:25:38;10.88;;;5.80;;
50789;SDS011;37287;47.554;7.844;2022-10-30T05:28:05;12.43;;;5.72;;
50789;SDS011;37287;47.554;7.844;2022-10-30T05:30:33;13.80;;;5.60;;
50789;SDS011;37287;47.554;7.844;2022-10-30T05:33:00;14.43;;;6.55;;
50789;SDS011;37287;47.554;7.844;2022-10-30T05:35:33;11.10;;;6.13;;
50789;SDS011;37287;47.554;7.844;2022-10-30T05:38:01;13.23;;;6.13;;
50789;SDS011;37287;47.554;7.844;2022-10-30T05:40:31;11.45;;;6.07;;
50789;SDS011;37287;47.554;7.844;2022-10-30T05:43:00;9.35;;;5.70;;
50789;SDS011;37287;47.554;7.844;2022-10-30T05:45:27;15.05;;;7.47;;
50789;SDS011;37287;47.554;7.844;2022-10-30T05:48:00;15.68;;;6.38;;
50789;SDS011;37287;47.554;7.844;2022-10-30T05:50:30;12.13;;;6.20;;
50789;SDS011;37287;47.554;7.844;2022-10-30T05:52:58;10.85;;;5.85;;
50789;SDS011;37287;47.554;7.844;2022-10-30T05:55:27;8.25;;;5.30;;
50789;SDS011;37287;47.554;7.844;2022-10-30T05:57:57;10.45;;;5.60;;
50789;SDS011;37287;47.554;7.844;2022-10-30T06:00:28;11.52;;;6.22;;
50789;SDS011;37287;47.554;7.844;2022-10-30T06:02:58;10.25;;;5.88;;
50789;SDS011;37287;47.554;7.844;2022-10-30T06:05:32;9.07;;;6.10;;
50789;SDS011;37287;47.554;7.844;2022-10-30T06:08:00;14.40;;;6.07;;
50789;SDS011;37287;47.554;7.844;2022-10-30T06:10:27;11.75;;;6.38;;
50789;SDS011;37287;47.554;7.844;2022-10-30T06:12:55;10.52;;;6.32;;
50789;SDS011;37287;47.554;7.844;2022-10-30T06:15:24;10.23;;;5.50;;
50789;SDS011;37287;47.554;7.844;2022-10-30T06:17:51;13.15;;;6.53;;
50789;SDS011;37287;47.554;7.844;2022-10-30T06:20:23;14.52;;;6.70;;
50789;SDS011;37287;47.554;7.844;2022-10-30T06:22:55;8.60;;;5.30;;
50789;SDS011;37287;47.554;7.844;2022-10-30T06:25:26;8.52;;;5.55;;
50789;SDS011;37287;47.554;7.844;2022-10-30T06:28:03;10.60;;;5.00;;
50789;SDS011;37287;47.554;7.844;2022-10-30T06:30:29;11.73;;;5.43;;
50789;SDS011;37287;47.554;7.844;2022-10-30T06:33:04;13.73;;;5.97;;
50789;SDS011;37287;47.554;7.844;2022-10-30T06:35:32;11.25;;;6.82;;
50789;SDS011;37287;47.554;7.844;2022-10-30T06:37:58;9.77;;;5.93;;
50789;SDS011;37287;47.554;7.844;2022-10-30T06:40:26;17.48;;;7.18;;
50789;SDS011;37287;47.554;7.844;2022-10-30T06:42:53;9.43;;;5.93;;
50789;SDS011;37287;47.554;7.844;2022-10-30T06:45:24;10.07;;;5.90;;
50789;SDS011;37287;47.554;7.844;2022-10-30T06:47:50;10.27;;;6.40;;
50789;SDS011;37287;47.554;7.844;2022-10-30T06:50:18;11.43;;;5.80;;
50789;SDS011;37287;47.554;7.844;2022-10-30T06:52:46;12.07;;;7.20;;
50789;SDS011;37287;47.554;7.844;2022-10-30T06:55:16;10.95;;;6.20;;
50789;SDS011;37287;47.554;7.844;2022-10-30T06:57:42;12.40;;;5.88;;
50789;SDS011;37287;47.554;7.844;2022-10-30T07:00:09;11.75;;;5.20;;
50789;SDS011;37287;47.554;7.844;2022-10-30T07:02:37;10.20;;;6.40;;
50789;SDS011;37287;47.554;7.844;2022-10-30T07:05:03;12.07;;;5.18;;
50789;SDS011;37287;47.554;7.844;2022-10-30T07:07:30;11.52;;;5.45;;
50789;SDS011;37287;47.554;7.844;2022-10-30T07:09:57;15.95;;;5.93;;
50789;SDS011;37287;47.554;7.844;2022-10-30T07:12:26;8.95;;;5.18;;
50789;SDS011;37287;47.554;7.844;2022-10-30T07:14:55;12.77;;;5.00;;
50789;SDS011;37287;47.554;7.844;2022-10-30T07:17:21;18.35;;;6.72;;
50789;SDS011;37287;47.554;7.844;2022-10-30T07:19:54;10.70;;;5.13;;
50789;SDS011;37287;47.554;7.844;2022-10-30T07:22:21;11.70;;;6.20;;
50789;SDS011;37287;47.554;7.844;2022-10-30T07:24:53;12.43;;;5.88;;
50789;SDS011;37287;47.554;7.844;2022-10-30T07:27:20;13.60;;;5.18;;
50789;SDS011;37287;47.554;7.844;2022-10-30T07:29:46;15.57;;;5.38;;
50789;SDS011;37287;47.554;7.844;2022-10-30T07:32:13;11.25;;;5.10;;
50789;SDS011;37287;47.554;7.844;2022-10-30T07:34:40;8.75;;;4.50;;
50789;SDS011;37287;47.554;7.844;2022-10-30T07:37:06;11.80;;;4.53;;
50789;SDS011;37287;47.554;7.844;2022-10-30T07:39:35;10.35;;;4.93;;
50789;SDS011;37287;47.554;7.844;2022-10-30T07:42:01;11.65;;;5.03;;
50789;SDS011;37287;47.554;7.844;2022-10-30T07:44:28;10.23;;;4.82;;
50789;SDS011;37287;47.554;7.844;2022-10-30T07:46:54;15.18;;;5.07;;
50789;SDS011;37287;47.554;7.844;2022-10-30T07:49:21;12.40;;;5.20;;
50789;SDS011;37287;47.554;7.844;2022-10-30T07:51:47;14.20;;;6.15;;
50789;SDS011;37287;47.554;7.844;2022-10-30T07:54:16;8.15;;;4.68;;
50789;SDS011;37287;47.554;7.844;2022-10-30T07:56:42;11.05;;;4.32;;
50789;SDS011;37287;47.554;7.844;2022-10-30T07:59:09;9.68;;;3.95;;
50789;SDS011;37287;47.554;7.844;2022-10-30T08:01:40;10.15;;;5.05;;
50789;SDS011;37287;47.554;7.844;2022-10-30T08:04:07;9.75;;;4.90;;
50789;SDS011;37287;47.554;7.844;2022-10-30T08:06:39;10.05;;;4.88;;
50789;SDS011;37287;47.554;7.844;2022-10-30T08:09:08;12.48;;;5.35;;
50789;SDS011;37287;47.554;7.844;2022-10-30T08:11:35;9.70;;;4.80;;
50789;SDS011;37287;47.554;7.844;2022-10-30T08:14:02;7.50;;;5.07;;
50789;SDS011;37287;47.554;7.844;2022-10-30T08:16:30;9.52;;;5.03;;
50789;SDS011;37287;47.554;7.844;2022-10-30T08:18:56;8.70;;;5.15;;
50789;SDS011;37287;47.554;7.844;2022-10-30T08:21:23;9.73;;;5.15;;
50789;SDS011;37287;47.554;7.844;2022-10-30T08:23:54;11.60;;;5.50;;
50789;SDS011;37287;47.554;7.844;2022-10-30T08:26:21;8.27;;;4.63;;
50789;SDS011;37287;47.554;7.844;2022-10-30T08:28:47;7.95;;;4.47;;
50789;SDS011;37287;47.554;7.844;2022-10-30T08:31:16;7.22;;;4.53;;
50789;SDS011;37287;47.554;7.844;2022-10-30T08:33:42;7.32;;;3.75;;
50789;SDS011;37287;47.554;7.844;2022-10-30T08:36:09;10.80;;;4.03;;
50789;SDS011;37287;47.554;7.844;2022-10-30T08:38:36;7.97;;;3.85;;
50789;SDS011;37287;47.554;7.844;2022-10-30T08:41:02;13.25;;;4.63;;
50789;SDS011;37287;47.554;7.844;2022-10-30T08:43:29;10.80;;;4.40;;
50789;SDS011;37287;47.554;7.844;2022-10-30T08:46:04;8.55;;;4.40;;
50789;SDS011;37287;47.554;7.844;2022-10-30T08:48:30;7.30;;;3.78;;
50789;SDS011;37287;47.554;7.844;2022-10-30T08:50:57;10.63;;;4.32;;
50789;SDS011;37287;47.554;7.844;2022-10-30T08:53:27;11.20;;;4.63;;
50789;SDS011;37287;47.554;7.844;2022-10-30T08:55:54;14.43;;;4.70;;
50789;SDS011;37287;47.554;7.844;2022-10-30T08:58:21;11.00;;;4.57;;
50789;SDS011;37287;47.554;7.844;2022-10-30T09:00:47;11.93;;;4.38;;
50789;SDS011;37287;47.554;7.844;2022-10-30T09:03:14;9.95;;;4.07;;
50789;SDS011;37287;47.554;7.844;2022-10-30T09:05:41;9.63;;;4.30;;
50789;SDS011;37287;47.554;7.844;2022-10-30T09:08:11;10.30;;;3.83;;
50789;SDS011;37287;47.554;7.844;2022-10-30T09:10:38;10.70;;;3.80;;
50789;SDS011;37287;47.554;7.844;2022-10-30T09:13:04;10.18;;;3.80;;
50789;SDS011;37287;47.554;7.844;2022-10-30T09:15:33;12.32;;;4.93;;
50789;SDS011;37287;47.554;7.844;2022-10-30T09:18:01;17.23;;;5.55;;
50789;SDS011;37287;47.554;7.844;2022-10-30T09:20:29;20.52;;;5.50;;
50789;SDS011;37287;47.554;7.844;2022-10-30T09:22:58;7.68;;;4.00;;
50789;SDS011;37287;47.554;7.844;2022-10-30T09:25:25;10.65;;;4.53;;
50789;SDS011;37287;47.554;7.844;2022-10-30T09:27:52;8.05;;;4.28;;
50789;SDS011;37287;47.554;7.844;2022-10-30T09:30:19;12.98;;;4.40;;
50789;SDS011;37287;47.554;7.844;2022-10-30T09:32:52;12.20;;;4.50;;
50789;SDS011;37287;47.554;7.844;2022-10-30T09:35:24;11.77;;;4.15;;
50789;SDS011;37287;47.554;7.844;2022-10-30T09:37:51;6.40;;;3.50;;
50789;SDS011;37287;47.554;7.844;2022-10-30T09:46:01;11.25;;;3.85;;
50789;SDS011;37287;47.554;7.844;2022-10-30T09:54:26;8.20;;;3.53;;
50789;SDS011;37287;47.554;7.844;2022-10-30T09:59:40;13.68;;;3.67;;
50789;SDS011;37287;47.554;7.844;2022-10-30T10:02:41;11.30;;;3.70;;
50789;SDS011;37287;47.554;7.844;2022-10-30T10:05:27;11.60;;;3.78;;
50789;SDS011;37287;47.554;7.844;2022-10-30T10:08:03;8.10;;;3.45;;
50789;SDS011;37287;47.554;7.844;2022-10-30T10:10:43;9.35;;;3.40;;
50789;SDS011;37287;47.554;7.844;2022-10-30T10:13:21;8.88;;;3.53;;
50789;SDS011;37287;47.554;7.844;2022-10-30T10:16:02;11.30;;;3.50;;
50789;SDS011;37287;47.554;7.844;2022-10-30T10:18:41;8.18;;;3.22;;
50789;SDS011;37287;47.554;7.844;2022-10-30T10:21:22;8.18;;;3.08;;
50789;SDS011;37287;47.554;7.844;2022-10-30T10:23:52;8.35;;;2.78;;
50789;SDS011;37287;47.554;7.844;2022-10-30T10:26:34;11.30;;;3.75;;
50789;SDS011;37287;47.554;7.844;2022-10-30T10:29:22;18.08;;;4.32;;
50789;SDS011;37287;47.554;7.844;2022-10-30T10:40:30;9.48;;;3.40;;
50789;SDS011;37287;47.554;7.844;2022-10-30T10:53:46;6.25;;;3.33;;
50789;SDS011;37287;47.554;7.844;2022-10-30T10:56:21;14.07;;;4.05;;
50789;SDS011;37287;47.554;7.844;2022-10-30T10:58:54;8.80;;;3.45;;
50789;SDS011;37287;47.554;7.844;2022-10-30T11:01:31;10.35;;;3.65;;
50789;SDS011;37287;47.554;7.844;2022-10-30T11:04:10;10.63;;;3.72;;
50789;SDS011;37287;47.554;7.844;2022-10-30T11:06:49;11.23;;;3.97;;
50789;SDS011;37287;47.554;7.844;2022-10-30T11:09:20;7.55;;;3.28;;
50789;SDS011;37287;47.554;7.844;2022-10-30T11:11:50;10.38;;;3.45;;
50789;SDS011;37287;47.554;7.844;2022-10-30T11:14:19;6.75;;;2.90;;
50789;SDS011;37287;47.554;7.844;2022-10-30T11:19:21;9.10;;;3.50;;
50789;SDS011;37287;47.554;7.844;2022-10-30T11:21:48;8.73;;;3.20;;
50789;SDS011;37287;47.554;7.844;2022-10-30T11:24:32;7.15;;;2.75;;
50789;SDS011;37287;47.554;7.844;2022-10-30T11:29:52;12.63;;;3.38;;
50789;SDS011;37287;47.554;7.844;2022-10-30T11:32:25;9.40;;;3.08;;
50789;SDS011;37287;47.554;7.844;2022-10-30T11:35:11;9.52;;;3.63;;
50789;SDS011;37287;47.554;7.844;2022-10-30T11:37:39;11.38;;;3.20;;
50789;SDS011;37287;47.554;7.844;2022-10-30T11:42:37;12.95;;;2.92;;
50789;SDS011;37287;47.554;7.844;2022-10-30T11:45:17;11.15;;;3.05;;
50789;SDS011;37287;47.554;7.844;2022-10-30T11:47:49;10.52;;;3.45;;
50789;SDS011;37287;47.554;7.844;2022-10-30T11:50:18;9.55;;;3.17;;
50789;SDS011;37287;47.554;7.844;2022-10-30T11:52:51;7.38;;;3.08;;
50789;SDS011;37287;47.554;7.844;2022-10-30T11:57:55;8.70;;;3.13;;
50789;SDS011;37287;47.554;7.844;2022-10-30T12:00:24;11.43;;;3.47;;
50789;SDS011;37287;47.554;7.844;2022-10-30T12:03:00;8.73;;;3.10;;
50789;SDS011;37287;47.554;7.844;2022-10-30T12:05:33;9.50;;;3.22;;
50789;SDS011;37287;47.554;7.844;2022-10-30T12:10:34;8.98;;;3.03;;
50789;SDS011;37287;47.554;7.844;2022-10-30T12:13:05;11.63;;;2.85;;
50789;SDS011;37287;47.554;7.844;2022-10-30T12:15:38;6.97;;;2.95;;
50789;SDS011;37287;47.554;7.844;2022-10-30T12:18:05;7.55;;;2.92;;
50789;SDS011;37287;47.554;7.844;2022-10-30T12:20:37;5.75;;;2.78;;
50789;SDS011;37287;47.554;7.844;2022-10-30T12:23:08;7.22;;;2.72;;
50789;SDS011;37287;47.554;7.844;2022-10-30T12:25:37;7.97;;;2.60;;
50789;SDS011;37287;47.554;7.844;2022-10-30T12:28:15;8.20;;;2.30;;
50789;SDS011;37287;47.554;7.844;2022-10-30T12:36:17;6.75;;;3.03;;
50789;SDS011;37287;47.554;7.844;2022-10-30T12:39:01;8.55;;;3.40;;
50789;SDS011;37287;47.554;7.844;2022-10-30T12:44:14;5.65;;;3.28;;
50789;SDS011;37287;47.554;7.844;2022-10-30T12:46:49;6.75;;;3.15;;
50789;SDS011;37287;47.554;7.844;2022-10-30T12:54:50;9.13;;;3.70;;
50789;SDS011;37287;47.554;7.844;2022-10-30T12:57:25;8.40;;;3.70;;
50789;SDS011;37287;47.554;7.844;2022-10-30T13:02:27;7.18;;;3.63;;
50789;SDS011;37287;47.554;7.844;2022-10-30T13:08:00;5.72;;;3.28;;
50789;SDS011;37287;47.554;7.844;2022-10-30T13:10:43;9.23;;;3.97;;
50789;SDS011;37287;47.554;7.844;2022-10-30T13:13:17;6.68;;;4.10;;
50789;SDS011;37287;47.554;7.844;2022-10-30T13:15:53;8.30;;;4.30;;
50789;SDS011;37287;47.554;7.844;2022-10-30T13:18:24;9.43;;;4.25;;
50789;SDS011;37287;47.554;7.844;2022-10-30T13:21:00;9.20;;;4.18;;
50789;SDS011;37287;47.554;7.844;2022-10-30T13:26:35;9.00;;;4.00;;
50789;SDS011;37287;47.554;7.844;2022-10-30T13:29:14;10.98;;;4.45;;
50789;SDS011;37287;47.554;7.844;2022-10-30T13:37:09;16.67;;;4.50;;
50789;SDS011;37287;47.554;7.844;2022-10-30T13:42:42;9.05;;;4.60;;
50789;SDS011;37287;47.554;7.844;2022-10-30T13:45:29;7.35;;;3.97;;
50789;SDS011;37287;47.554;7.844;2022-10-30T13:53:42;7.28;;;3.65;;
50789;SDS011;37287;47.554;7.844;2022-10-30T13:56:16;9.80;;;4.13;;
50789;SDS011;37287;47.554;7.844;2022-10-30T14:11:01;7.47;;;3.67;;
50789;SDS011;37287;47.554;7.844;2022-10-30T14:19:01;11.50;;;3.80;;
50789;SDS011;37287;47.554;7.844;2022-10-30T14:26:52;13.60;;;4.00;;
50789;SDS011;37287;47.554;7.844;2022-10-30T14:34:42;6.78;;;3.45;;
50789;SDS011;37287;47.554;7.844;2022-10-30T14:39:50;9.80;;;3.75;;
50789;SDS011;37287;47.554;7.844;2022-10-30T14:42:22;11.30;;;3.42;;
50789;SDS011;37287;47.554;7.844;2022-10-30T14:48:00;7.95;;;3.60;;
50789;SDS011;37287;47.554;7.844;2022-10-30T14:53:43;10.13;;;3.80;;
50789;SDS011;37287;47.554;7.844;2022-10-30T14:56:41;11.88;;;3.67;;
50789;SDS011;37287;47.554;7.844;2022-10-30T15:04:44;8.73;;;3.97;;
50789;SDS011;37287;47.554;7.844;2022-10-30T15:07:42;10.45;;;4.15;;
50789;SDS011;37287;47.554;7.844;2022-10-30T15:13:14;10.70;;;4.38;;
50789;SDS011;37287;47.554;7.844;2022-10-30T15:15:54;9.40;;;4.35;;
50789;SDS011;37287;47.554;7.844;2022-10-30T15:18:23;11.45;;;3.90;;
50789;SDS011;37287;47.554;7.844;2022-10-30T15:21:02;15.43;;;5.20;;
50789;SDS011;37287;47.554;7.844;2022-10-30T15:23:33;9.65;;;4.65;;
50789;SDS011;37287;47.554;7.844;2022-10-30T15:26:03;7.93;;;4.97;;
50789;SDS011;37287;47.554;7.844;2022-10-30T15:28:35;10.02;;;4.70;;
50789;SDS011;37287;47.554;7.844;2022-10-30T15:31:06;13.05;;;4.75;;
50789;SDS011;37287;47.554;7.844;2022-10-30T15:33:45;10.00;;;5.15;;
50789;SDS011;37287;47.554;7.844;2022-10-30T15:36:19;10.80;;;5.00;;
50789;SDS011;37287;47.554;7.844;2022-10-30T15:39:04;9.73;;;4.70;;
50789;SDS011;37287;47.554;7.844;2022-10-30T15:41:36;14.48;;;4.88;;
50789;SDS011;37287;47.554;7.844;2022-10-30T15:44:17;11.85;;;4.85;;
50789;SDS011;37287;47.554;7.844;2022-10-30T15:46:49;12.55;;;5.00;;
50789;SDS011;37287;47.554;7.844;2022-10-30T15:49:20;11.18;;;5.07;;
50789;SDS011;37287;47.554;7.844;2022-10-30T15:51:54;13.27;;;5.15;;
50789;SDS011;37287;47.554;7.844;2022-10-30T15:54:22;16.52;;;5.07;;
50789;SDS011;37287;47.554;7.844;2022-10-30T15:56:51;11.02;;;5.40;;
50789;SDS011;37287;47.554;7.844;2022-10-30T15:59:41;10.07;;;5.10;;
50789;SDS011;37287;47.554;7.844;2022-10-30T16:02:18;23.23;;;6.25;;
50789;SDS011;37287;47.554;7.844;2022-10-30T16:04:48;9.70;;;5.05;;
50789;SDS011;37287;47.554;7.844;2022-10-30T16:07:21;13.68;;;5.30;;
50789;SDS011;37287;47.554;7.844;2022-10-30T16:09:52;8.05;;;4.57;;
50789;SDS011;37287;47.554;7.844;2022-10-30T16:12:23;15.40;;;4.90;;
50789;SDS011;37287;47.554;7.844;2022-10-30T16:14:51;14.75;;;5.32;;
50789;SDS011;37287;47.554;7.844;2022-10-30T16:17:25;11.77;;;5.30;;
50789;SDS011;37287;47.554;7.844;2022-10-30T16:19:53;10.25;;;5.63;;
50789;SDS011;37287;47.554;7.844;2022-10-30T16:24:58;11.68;;;5.18;;
50789;SDS011;37287;47.554;7.844;2022-10-30T16:27:33;13.50;;;5.53;;
50789;SDS011;37287;47.554;7.844;2022-10-30T16:30:11;11.77;;;5.80;;
50789;SDS011;37287;47.554;7.844;2022-10-30T16:32:41;17.40;;;5.57;;
50789;SDS011;37287;47.554;7.844;2022-10-30T16:35:17;11.40;;;5.20;;
50789;SDS011;37287;47.554;7.844;2022-10-30T16:37:48;14.35;;;5.65;;
50789;SDS011;37287;47.554;7.844;2022-10-30T16:40:17;10.57;;;5.00;;
50789;SDS011;37287;47.554;7.844;2022-10-30T16:42:49;11.93;;;5.80;;
50789;SDS011;37287;47.554;7.844;2022-10-30T16:47:58;13.57;;;6.30;;
50789;SDS011;37287;47.554;7.844;2022-10-30T16:50:47;15.32;;;8.07;;
50789;SDS011;37287;47.554;7.844;2022-10-30T16:53:23;14.68;;;7.35;;
50789;SDS011;37287;47.554;7.844;2022-10-30T16:55:51;14.05;;;7.65;;
50789;SDS011;37287;47.554;7.844;2022-10-30T16:58:19;14.73;;;7.10;;
50789;SDS011;37287;47.554;7.844;2022-10-30T17:00:52;11.23;;;6.63;;
50789;SDS011;37287;47.554;7.844;2022-10-30T17:03:26;14.80;;;6.30;;
50789;SDS011;37287;47.554;7.844;2022-10-30T17:05:58;12.02;;;6.38;;
50789;SDS011;37287;47.554;7.844;2022-10-30T17:08:48;10.90;;;5.65;;
50789;SDS011;37287;47.554;7.844;2022-10-30T17:11:18;14.18;;;6.13;;
50789;SDS011;37287;47.554;7.844;2022-10-30T17:14:01;10.18;;;5.32;;
50789;SDS011;37287;47.554;7.844;2022-10-30T17:16:36;12.98;;;5.95;;
50789;SDS011;37287;47.554;7.844;2022-10-30T17:21:58;18.15;;;6.20;;
50789;SDS011;37287;47.554;7.844;2022-10-30T17:24:29;16.20;;;6.00;;
50789;SDS011;37287;47.554;7.844;2022-10-30T17:26:59;14.20;;;5.75;;
50789;SDS011;37287;47.554;7.844;2022-10-30T17:34:48;15.70;;;5.80;;
50789;SDS011;37287;47.554;7.844;2022-10-30T17:37:26;10.90;;;5.32;;
50789;SDS011;37287;47.554;7.844;2022-10-30T17:39:52;12.52;;;5.40;;
50789;SDS011;37287;47.554;7.844;2022-10-30T17:42:19;10.18;;;5.00;;